Time;durP1;ratioP1;P1;durP2;ratioP2;P2;SDS_P1;SDS_P2;PMS_P1;PMS_P2;Temp;Humidity;BMP_temperature;BMP_pressure;BME280_temperature;BME280_humidity;BME280_pressure;Samples;Min_cycle;Max_cycle;Signal;HPM_P1;HPM_P2
2022/09/10 00:01:51;;;;;;;2.63;0.93;;;15.20;99.90;;;;;;5004653;28;38456;-82
2022/09/10 00:04:17;;;;;;;3.50;0.90;;;15.00;99.90;;;;;;5004692;28;37414;-82
2022/09/10 00:06:44;;;;;;;2.15;1.35;;;15.10;99.90;;;;;;5022958;28;36069;-84
2022/09/10 00:09:11;;;;;;;2.05;1.00;;;15.10;99.90;;;;;;5005393;28;37769;-83
2022/09/10 00:11:39;;;;;;;2.95;1.05;;;15.10;99.90;;;;;;5002536;28;38966;-83
2022/09/10 00:14:08;;;;;;;2.40;0.70;;;15.10;99.90;;;;;;5002331;28;37294;-83
2022/09/10 00:16:34;;;;;;;3.55;1.13;;;15.10;99.90;;;;;;5007303;28;36137;-84
2022/09/10 00:19:01;;;;;;;3.40;0.70;;;15.00;99.90;;;;;;5005048;28;37369;-84
2022/09/10 00:21:28;;;;;;;3.40;0.98;;;15.10;99.90;;;;;;5027638;28;49309;-84
2022/09/10 00:23:55;;;;;;;3.08;1.00;;;15.00;99.90;;;;;;5008911;28;35384;-84
2022/09/10 00:26:27;;;;;;;1.17;0.60;;;15.00;99.90;;;;;;5009004;28;37867;-83
2022/09/10 00:28:55;;;;;;;3.75;1.00;;;14.90;99.90;;;;;;5022341;28;38775;-83
2022/09/10 00:31:22;;;;;;;0.60;0.40;;;14.90;99.90;;;;;;5025300;28;39416;-79
2022/09/10 00:33:49;;;;;;;5.03;1.00;;;15.00;99.90;;;;;;5005435;28;37015;-82
2022/09/10 00:36:19;;;;;;;1.48;0.82;;;15.00;99.90;;;;;;4998439;28;37434;-82
2022/09/10 00:38:46;;;;;;;3.28;2.17;;;15.00;99.90;;;;;;5024170;28;39307;-85
2022/09/10 00:41:13;;;;;;;2.85;1.85;;;15.10;99.90;;;;;;5005184;28;38573;-85
2022/09/10 00:43:47;;;;;;;4.55;2.72;;;15.10;99.90;;;;;;5003343;28;37803;-86
2022/09/10 00:46:21;;;;;;;7.50;4.22;;;15.20;99.90;;;;;;5003139;28;36264;-83
2022/09/10 00:48:47;;;;;;;10.77;6.35;;;15.30;99.90;;;;;;5005884;28;37763;-86
2022/09/10 00:51:13;;;;;;;9.38;5.65;;;15.40;99.90;;;;;;5025025;28;39225;-81
2022/09/10 00:53:39;;;;;;;8.77;5.28;;;15.50;99.90;;;;;;5006965;28;37471;-81
2022/09/10 00:56:06;;;;;;;14.35;7.13;;;15.50;99.90;;;;;;5022270;28;37159;-82
2022/09/10 00:58:32;;;;;;;13.32;6.97;;;15.60;99.90;;;;;;5007296;28;38778;-84
2022/09/10 01:03:43;;;;;;;11.90;5.60;;;15.70;99.90;;;;;;5334875;22;19936;-81
2022/09/10 01:08:45;;;;;;;20.30;8.48;;;15.80;99.90;;;;;;5164566;22;20033;-80
2022/09/10 01:11:55;;;;;;;20.98;7.43;;;15.80;99.90;;;;;;5061523;28;39939;-80
2022/09/10 01:15:06;;;;;;;12.43;6.90;;;15.90;99.90;;;;;;5027559;28;38486;-80
2022/09/10 01:17:44;;;;;;;17.35;8.77;;;15.90;99.90;;;;;;5040736;28;50429;-79
2022/09/10 01:20:16;;;;;;;16.25;9.27;;;15.90;99.90;;;;;;5023790;28;37902;-79
2022/09/10 01:22:58;;;;;;;19.42;9.27;;;16.00;99.90;;;;;;5021758;28;37185;-79
2022/09/10 01:25:27;;;;;;;21.30;10.18;;;16.00;99.90;;;;;;5032678;28;37904;-80
2022/09/10 01:27:58;;;;;;;19.05;11.70;;;16.00;99.90;;;;;;5027311;28;36713;-79
2022/09/10 01:30:48;;;;;;;22.60;14.88;;;16.10;99.90;;;;;;5036804;28;38459;-79
2022/09/10 01:33:36;;;;;;;24.60;14.68;;;16.20;99.90;;;;;;5024710;28;48506;-80
2022/09/10 01:36:11;;;;;;;21.63;12.40;;;16.10;99.90;;;;;;5037338;28;38425;-81
2022/09/10 01:38:38;;;;;;;24.33;13.45;;;16.20;99.90;;;;;;5052358;28;38992;-79
2022/09/10 01:41:09;;;;;;;18.92;11.27;;;16.20;99.90;;;;;;5020355;28;40425;-79
2022/09/10 01:43:36;;;;;;;18.42;9.52;;;16.20;99.90;;;;;;5025771;28;39391;-80
2022/09/10 01:46:20;;;;;;;16.05;9.25;;;16.10;99.90;;;;;;5045899;28;38618;-79
2022/09/10 01:49:07;;;;;;;17.67;9.68;;;16.10;99.90;;;;;;5053302;28;48208;-80
2022/09/10 01:52:12;;;;;;;12.05;6.53;;;16.10;99.90;;;;;;5037774;28;48210;-81
2022/09/10 01:54:58;;;;;;;16.67;6.45;;;15.90;99.90;;;;;;5046031;28;48764;-80
2022/09/10 01:57:51;;;;;;;8.88;5.28;;;15.90;99.90;;;;;;5035956;28;38629;-79
2022/09/10 02:00:23;;;;;;;9.38;5.07;;;15.90;99.90;;;;;;5033775;28;37521;-80
2022/09/10 02:03:10;;;;;;;11.15;6.50;;;15.80;99.90;;;;;;5034247;28;37506;-81
2022/09/10 02:05:42;;;;;;;15.40;9.30;;;15.80;99.90;;;;;;5019376;28;47552;-81
2022/09/10 02:08:27;;;;;;;12.38;9.43;;;15.80;99.90;;;;;;5028632;28;37070;-80
2022/09/10 02:10:58;;;;;;;18.48;12.88;;;15.80;99.90;;;;;;5035158;28;37530;-80
2022/09/10 02:13:26;;;;;;;19.63;13.57;;;15.80;99.90;;;;;;5051139;28;41931;-79
2022/09/10 02:15:53;;;;;;;24.60;16.98;;;15.90;99.90;;;;;;5027485;28;38264;-79
2022/09/10 02:18:20;;;;;;;22.60;17.75;;;15.90;99.90;;;;;;5021933;28;39143;-80
2022/09/10 02:20:49;;;;;;;26.35;19.35;;;16.00;99.90;;;;;;5026101;28;36349;-80
2022/09/10 02:23:18;;;;;;;23.73;19.23;;;16.10;99.90;;;;;;5033502;28;37469;-80
2022/09/10 02:25:48;;;;;;;26.52;20.40;;;16.10;99.90;;;;;;5033480;28;38646;-81
2022/09/10 02:28:14;;;;;;;28.55;21.30;;;16.10;99.90;;;;;;5035352;28;38347;-80
2022/09/10 02:30:40;;;;;;;26.52;19.45;;;16.20;99.90;;;;;;5031806;28;37507;-80
2022/09/10 02:33:06;;;;;;;21.75;16.73;;;16.20;99.90;;;;;;5058369;28;39969;-80
2022/09/10 02:35:32;;;;;;;27.27;19.85;;;16.30;99.90;;;;;;5050578;28;39006;-79
2022/09/10 02:37:58;;;;;;;21.55;14.88;;;16.20;99.90;;;;;;5027778;28;38571;-80
2022/09/10 02:40:26;;;;;;;23.90;14.27;;;16.20;99.90;;;;;;5034777;28;36131;-80
2022/09/10 02:43:37;;;;;;;19.17;12.68;;;16.30;99.90;;;;;;5040753;28;38899;-80
2022/09/10 02:46:07;;;;;;;13.88;9.32;;;16.30;99.90;;;;;;5361337;23;48761;-79
2022/09/10 02:48:47;;;;;;;15.18;7.97;;;16.30;99.90;;;;;;5058055;28;38349;-80
2022/09/10 02:51:13;;;;;;;12.07;5.82;;;16.30;99.90;;;;;;5026108;28;36269;-79
2022/09/10 02:53:39;;;;;;;15.07;5.45;;;16.30;99.90;;;;;;5037459;28;37583;-80
2022/09/10 02:56:06;;;;;;;7.38;4.07;;;16.30;99.90;;;;;;5049138;28;39835;-80
2022/09/10 02:58:32;;;;;;;17.55;7.10;;;16.40;99.90;;;;;;5023089;28;37128;-80
2022/09/10 03:01:21;;;;;;;7.95;3.42;;;16.40;99.90;;;;;;5035342;28;36964;-80
2022/09/10 03:03:55;;;;;;;11.85;3.75;;;16.40;99.90;;;;;;5048616;28;50221;-80
2022/09/10 03:06:33;;;;;;;13.43;4.22;;;16.40;99.90;;;;;;5051475;28;39746;-80
2022/09/10 03:09:00;;;;;;;13.18;3.83;;;16.40;99.90;;;;;;5040661;28;37999;-80
2022/09/10 03:11:27;;;;;;;9.80;2.60;;;16.40;99.90;;;;;;5036727;28;37348;-80
2022/09/10 03:13:54;;;;;;;8.75;2.92;;;16.40;99.90;;;;;;5038438;28;38022;-80
2022/09/10 03:16:25;;;;;;;13.60;3.25;;;16.40;99.90;;;;;;5034317;28;38019;-80
2022/09/10 03:18:51;;;;;;;9.15;2.40;;;16.30;99.90;;;;;;5029315;28;36328;-80
2022/09/10 03:21:20;;;;;;;11.55;3.00;;;16.30;99.90;;;;;;5040218;28;36968;-79
2022/09/10 03:23:48;;;;;;;10.75;2.50;;;16.30;99.90;;;;;;5025303;28;37607;-79
2022/09/10 03:26:16;;;;;;;11.65;2.90;;;16.30;99.90;;;;;;5022746;28;38531;-79
2022/09/10 03:28:43;;;;;;;8.38;2.67;;;16.40;99.90;;;;;;5024288;28;39022;-78
2022/09/10 03:31:10;;;;;;;10.52;3.20;;;16.30;99.90;;;;;;5023054;28;37840;-78
2022/09/10 03:33:36;;;;;;;7.70;2.28;;;16.30;99.90;;;;;;5020143;28;37730;-78
2022/09/10 03:36:04;;;;;;;17.17;2.97;;;16.30;99.90;;;;;;5036314;28;38680;-79
2022/09/10 03:38:30;;;;;;;11.57;3.17;;;16.30;99.90;;;;;;5015733;28;36808;-78
2022/09/10 03:40:56;;;;;;;13.43;3.65;;;16.30;99.90;;;;;;5023890;28;37883;-79
2022/09/10 03:43:23;;;;;;;16.00;3.50;;;16.20;99.90;;;;;;5041382;28;40153;-78
2022/09/10 03:45:50;;;;;;;15.25;2.83;;;16.30;99.90;;;;;;5024250;28;39816;-79
2022/09/10 03:48:18;;;;;;;15.55;3.25;;;16.20;99.90;;;;;;5041320;28;38675;-80
2022/09/10 03:50:45;;;;;;;17.92;4.15;;;16.20;99.90;;;;;;5024379;28;35970;-79
2022/09/10 03:53:12;;;;;;;12.48;3.15;;;16.20;99.90;;;;;;5022947;28;37608;-79
2022/09/10 03:55:42;;;;;;;13.23;3.75;;;16.30;99.90;;;;;;5045645;28;38402;-79
2022/09/10 03:58:08;;;;;;;10.82;2.92;;;16.30;99.90;;;;;;5041767;28;38593;-79
2022/09/10 04:00:35;;;;;;;13.23;3.08;;;16.30;99.90;;;;;;5025409;28;36181;-79
2022/09/10 04:03:04;;;;;;;14.30;4.22;;;16.30;99.90;;;;;;5044610;28;39646;-80
2022/09/10 04:05:31;;;;;;;21.63;4.18;;;16.30;99.90;;;;;;5040556;28;49257;-80
2022/09/10 04:07:57;;;;;;;11.55;3.50;;;16.30;99.90;;;;;;5025857;28;37067;-80
2022/09/10 04:10:27;;;;;;;14.10;3.83;;;16.30;99.90;;;;;;5037185;28;37142;-81
2022/09/10 04:12:54;;;;;;;10.32;3.65;;;16.30;99.90;;;;;;5020847;28;39715;-78
2022/09/10 04:15:22;;;;;;;15.25;5.05;;;16.40;99.90;;;;;;5041178;28;39137;-79
2022/09/10 04:17:53;;;;;;;15.73;3.63;;;16.40;99.90;;;;;;5049717;28;38721;-79
2022/09/10 04:20:21;;;;;;;13.65;3.30;;;16.40;99.90;;;;;;5051997;28;38024;-79
2022/09/10 04:22:50;;;;;;;9.27;3.28;;;16.40;99.90;;;;;;5029838;28;40102;-79
2022/09/10 04:25:17;;;;;;;11.20;3.83;;;16.40;99.90;;;;;;5026465;28;38315;-79
2022/09/10 04:27:45;;;;;;;11.50;3.85;;;16.40;99.90;;;;;;5021733;28;38549;-79
2022/09/10 04:30:11;;;;;;;9.23;3.50;;;16.40;99.90;;;;;;5018714;28;36239;-78
2022/09/10 04:32:38;;;;;;;18.17;4.78;;;16.40;99.90;;;;;;5018938;28;38119;-78
2022/09/10 04:35:06;;;;;;;10.05;4.35;;;16.50;99.90;;;;;;5039769;28;39228;-78
2022/09/10 04:37:32;;;;;;;11.50;4.28;;;16.50;99.90;;;;;;5041836;28;37743;-79
2022/09/10 04:40:03;;;;;;;12.00;5.00;;;16.50;99.90;;;;;;5044535;28;37652;-78
2022/09/10 04:42:31;;;;;;;8.00;3.53;;;16.50;99.90;;;;;;5027994;28;46930;-78
2022/09/10 04:44:58;;;;;;;15.32;5.25;;;16.50;99.90;;;;;;5028601;28;37442;-79
2022/09/10 04:47:24;;;;;;;13.85;5.97;;;16.60;99.90;;;;;;5038554;28;40641;-78
2022/09/10 04:49:50;;;;;;;10.40;4.88;;;16.60;99.90;;;;;;5009903;28;37797;-78
2022/09/10 04:52:16;;;;;;;12.82;4.95;;;16.60;99.90;;;;;;5042184;28;39344;-78
2022/09/10 04:54:43;;;;;;;9.63;4.25;;;16.70;99.90;;;;;;5025163;28;38280;-79
2022/09/10 04:57:09;;;;;;;7.60;4.60;;;16.60;99.90;;;;;;5023516;28;39754;-78
2022/09/10 04:59:37;;;;;;;11.75;5.93;;;16.70;99.90;;;;;;5025872;28;38283;-79
2022/09/10 05:02:05;;;;;;;7.85;4.93;;;16.60;99.90;;;;;;5019589;28;37334;-78
2022/09/10 05:04:32;;;;;;;10.93;5.47;;;16.60;99.90;;;;;;5021733;28;37343;-78
2022/09/10 05:06:58;;;;;;;10.95;5.03;;;16.70;99.90;;;;;;5023405;28;37977;-78
2022/09/10 05:09:29;;;;;;;11.07;4.63;;;16.70;99.90;;;;;;5043734;28;37746;-78
2022/09/10 05:11:59;;;;;;;9.63;4.53;;;16.70;99.90;;;;;;5020420;28;40623;-78
2022/09/10 05:14:26;;;;;;;9.13;4.65;;;16.70;99.90;;;;;;5020907;28;38915;-78
2022/09/10 05:16:54;;;;;;;12.48;4.47;;;16.70;99.90;;;;;;5019066;28;38922;-78
2022/09/10 05:19:20;;;;;;;10.10;5.28;;;16.70;99.90;;;;;;5016342;28;37272;-78
2022/09/10 05:21:47;;;;;;;6.93;3.92;;;16.70;99.90;;;;;;5022456;28;38891;-79
2022/09/10 05:24:14;;;;;;;9.43;4.05;;;16.70;99.90;;;;;;5040284;28;38940;-78
2022/09/10 05:26:41;;;;;;;12.15;5.22;;;16.70;99.90;;;;;;5035606;28;36706;-78
2022/09/10 05:29:07;;;;;;;8.40;4.30;;;16.70;99.90;;;;;;5013085;28;36815;-79
2022/09/10 05:31:34;;;;;;;8.25;4.40;;;16.60;99.90;;;;;;5016230;28;38344;-78
2022/09/10 05:34:00;;;;;;;10.48;4.50;;;16.60;99.90;;;;;;5014122;28;37183;-79
2022/09/10 05:36:27;;;;;;;10.50;4.70;;;16.60;99.90;;;;;;5020245;28;37663;-78
2022/09/10 05:38:56;;;;;;;8.35;4.95;;;16.60;99.90;;;;;;5018182;28;36152;-79
2022/09/10 05:41:22;;;;;;;5.97;4.25;;;16.60;99.90;;;;;;5051269;22;37395;-79
2022/09/10 05:43:49;;;;;;;6.60;4.75;;;16.60;99.90;;;;;;5041094;28;38562;-79
2022/09/10 05:46:15;;;;;;;8.98;4.43;;;16.60;99.90;;;;;;5019260;28;38616;-79
2022/09/10 05:48:42;;;;;;;8.02;4.15;;;16.60;99.90;;;;;;5021132;28;36488;-78
2022/09/10 05:51:08;;;;;;;11.88;5.07;;;16.60;99.90;;;;;;5038635;28;39363;-79
2022/09/10 05:53:34;;;;;;;6.30;3.45;;;16.70;99.90;;;;;;5042585;28;38411;-79
2022/09/10 05:56:00;;;;;;;5.93;4.28;;;16.70;99.90;;;;;;5021802;28;36930;-79
2022/09/10 05:58:29;;;;;;;6.22;3.45;;;16.70;99.90;;;;;;5020639;28;35833;-79
2022/09/10 06:00:57;;;;;;;8.20;4.07;;;16.80;99.90;;;;;;5041763;28;39585;-79
2022/09/10 06:03:24;;;;;;;8.63;4.93;;;16.80;99.90;;;;;;5038651;28;39076;-80
2022/09/10 06:05:50;;;;;;;6.95;3.70;;;16.90;99.90;;;;;;5022244;28;38547;-79
2022/09/10 06:08:20;;;;;;;6.15;2.60;;;16.90;99.90;;;;;;5035932;28;38049;-79
2022/09/10 06:11:02;;;;;;;2.75;1.67;;;17.00;99.90;;;;;;5021970;28;37813;-80
2022/09/10 06:13:28;;;;;;;3.67;1.58;;;16.90;99.90;;;;;;5040524;28;49018;-79
2022/09/10 06:15:55;;;;;;;5.85;1.67;;;16.90;99.90;;;;;;5048682;28;38252;-79
2022/09/10 06:18:21;;;;;;;5.88;1.52;;;17.00;99.90;;;;;;5019049;28;37427;-79
2022/09/10 06:20:47;;;;;;;4.43;1.10;;;17.10;99.90;;;;;;5017504;28;37251;-79
2022/09/10 06:23:15;;;;;;;5.18;0.93;;;17.20;99.90;;;;;;5037544;28;38774;-78
2022/09/10 06:25:43;;;;;;;9.75;1.05;;;17.30;99.90;;;;;;5022297;28;38781;-78
2022/09/10 06:28:11;;;;;;;2.78;0.95;;;17.30;99.90;;;;;;5038598;28;37902;-78
2022/09/10 06:30:38;;;;;;;4.82;0.90;;;17.40;99.90;;;;;;5035449;28;38694;-78
2022/09/10 06:33:12;;;;;;;3.88;1.02;;;17.50;99.90;;;;;;5020108;28;39617;-79
2022/09/10 06:35:38;;;;;;;1.58;0.63;;;17.70;99.90;;;;;;5038835;28;38720;-79
2022/09/10 06:38:05;;;;;;;3.90;1.10;;;17.80;99.90;;;;;;5041636;28;38556;-80
2022/09/10 06:40:31;;;;;;;6.00;0.75;;;17.90;99.90;;;;;;5027969;28;37558;-79
2022/09/10 06:43:00;;;;;;;1.67;0.63;;;17.80;99.90;;;;;;5022671;28;38347;-79
2022/09/10 06:45:29;;;;;;;3.70;0.60;;;17.90;99.90;;;;;;5027096;28;47200;-80
2022/09/10 06:47:55;;;;;;;4.18;0.75;;;17.90;99.90;;;;;;5038284;28;37315;-80
2022/09/10 06:50:22;;;;;;;3.45;0.75;;;17.90;99.90;;;;;;5033673;28;37710;-80
2022/09/10 06:52:49;;;;;;;4.43;0.77;;;17.90;99.90;;;;;;5031265;28;38509;-80
2022/09/10 06:55:34;;;;;;;7.15;0.57;;;18.00;99.90;;;;;;5033859;28;38540;-80
2022/09/10 06:58:04;;;;;;;2.78;0.68;;;17.80;99.90;;;;;;5162412;22;38741;-80
2022/09/10 07:00:46;;;;;;;6.05;1.13;;;17.80;99.90;;;;;;5029103;28;50130;-80
2022/09/10 07:03:15;;;;;;;3.50;0.70;;;17.70;99.90;;;;;;5008773;28;38213;-81
2022/09/10 07:05:46;;;;;;;5.57;0.82;;;17.70;99.90;;;;;;4987169;28;38257;-81
2022/09/10 07:08:39;;;;;;;7.10;1.27;;;17.60;99.90;;;;;;5043121;28;37779;-80
2022/09/10 07:13:42;;;;;;;6.40;0.68;;;17.70;99.90;;;;;;5136867;22;20052;-80
2022/09/10 07:16:08;;;;;;;6.68;0.70;;;17.60;99.90;;;;;;5188062;22;38597;-79
2022/09/10 07:18:35;;;;;;;3.67;0.73;;;17.60;99.90;;;;;;5034148;28;37470;-79
2022/09/10 07:21:13;;;;;;;2.60;0.77;;;17.60;99.90;;;;;;5046915;28;39033;-80
2022/09/10 07:23:39;;;;;;;3.88;0.55;;;17.60;99.90;;;;;;5131469;23;48282;-80
2022/09/10 07:26:22;;;;;;;4.90;0.77;;;17.70;99.90;;;;;;5024182;23;39436;-81
2022/09/10 07:28:48;;;;;;;5.40;1.00;;;17.70;99.90;;;;;;5004892;28;36649;-79
2022/09/10 07:34:03;;;;;;;5.30;0.60;;;17.90;99.90;;;;;;4888503;26;20046;-80
2022/09/10 07:42:20;;;;;;;2.72;1.10;;;18.10;99.90;;;;;;5609660;23;20044;-80
2022/09/10 07:44:47;;;;;;;3.55;0.75;;;18.00;99.90;;;;;;4999316;28;37927;-80
2022/09/10 07:47:20;;;;;;;3.88;0.90;;;18.10;99.90;;;;;;4990928;28;39558;-81
2022/09/10 07:50:01;;;;;;;2.67;0.68;;;18.20;99.90;;;;;;4970090;28;38076;-81
2022/09/10 07:52:30;;;;;;;5.53;0.75;;;18.30;99.90;;;;;;5194343;23;39469;-80
2022/09/10 08:00:15;;;;;;;5.07;0.80;;;18.70;99.90;;;;;;6093658;22;20031;31
2022/09/10 08:13:13;;;;;;;4.05;0.70;;;18.90;99.90;;;;;;5271113;22;20049;-80
2022/09/10 08:23:31;;;;;;;4.97;1.00;;;18.90;99.90;;;;;;5902221;22;21968;-80
2022/09/10 08:36:45;;;;;;;9.13;2.10;;;19.50;99.90;;;;;;5276385;23;20033;31
2022/09/10 08:39:13;;;;;;;7.20;2.28;;;19.70;99.90;;;;;;4910211;28;37854;-79
2022/09/10 08:41:53;;;;;;;6.85;2.80;;;19.90;99.90;;;;;;4926220;28;38134;-78
2022/09/10 08:44:52;;;;;;;8.32;2.60;;;20.00;99.90;;;;;;4924272;28;36587;-79
2022/09/10 08:47:38;;;;;;;6.03;2.20;;;20.00;99.90;;;;;;4948393;28;38177;-80
2022/09/10 08:50:12;;;;;;;6.15;2.92;;;20.00;99.90;;;;;;4957591;28;37585;-78
2022/09/10 08:52:51;;;;;;;7.00;3.03;;;20.00;99.90;;;;;;4944911;28;37151;-78
2022/09/10 08:55:21;;;;;;;5.18;2.80;;;20.30;99.90;;;;;;4951904;28;39921;-79
2022/09/10 08:58:13;;;;;;;5.15;2.97;;;20.40;99.90;;;;;;4944557;28;39414;-80
2022/09/10 09:00:43;;;;;;;6.35;2.63;;;20.40;99.90;;;;;;4923611;28;50072;-78
2022/09/10 09:03:39;;;;;;;8.48;3.30;;;20.40;99.90;;;;;;4942087;28;37252;-80
2022/09/10 09:06:32;;;;;;;7.65;3.38;;;20.30;99.90;;;;;;4940316;28;37371;-79
2022/09/10 09:09:00;;;;;;;4.47;2.80;;;20.20;99.90;;;;;;4946689;28;38612;-78
2022/09/10 09:11:55;;;;;;;8.43;3.38;;;20.20;99.90;;;;;;4943308;28;37801;-80
2022/09/10 09:17:47;;;;;;;5.45;3.30;;;20.10;99.90;;;;;;4847049;26;20047;-81
2022/09/10 09:22:55;;;;;;;5.78;2.80;;;19.90;99.90;;;;;;5134174;23;20039;-79
2022/09/10 09:27:55;;;;;;;2.85;2.00;;;19.90;99.90;;;;;;4959751;28;20055;-79
2022/09/10 09:30:36;;;;;;;3.10;1.70;;;19.90;99.90;;;;;;4945851;28;39089;-77
2022/09/10 09:33:12;;;;;;;4.53;1.83;;;19.80;99.90;;;;;;4948117;28;37101;-79
2022/09/10 09:35:47;;;;;;;3.25;1.90;;;19.70;99.90;;;;;;4950435;28;39255;-77
2022/09/10 09:38:27;;;;;;;3.90;1.55;;;19.70;99.90;;;;;;4934126;28;36237;-77
2022/09/10 09:41:03;;;;;;;4.03;1.92;;;19.70;99.90;;;;;;4940170;28;37888;-78
2022/09/10 09:43:36;;;;;;;3.78;1.85;;;19.70;99.90;;;;;;4948706;28;48403;-78
2022/09/10 09:46:06;;;;;;;3.75;1.80;;;19.80;99.90;;;;;;4936801;28;36954;-78
2022/09/10 09:48:38;;;;;;;4.20;2.00;;;19.70;99.90;;;;;;4933306;28;36195;-77
2022/09/10 09:51:07;;;;;;;3.72;1.98;;;19.80;99.90;;;;;;4929671;28;37482;-79
2022/09/10 09:53:33;;;;;;;2.83;2.08;;;20.10;99.90;;;;;;4928071;28;37428;-78
2022/09/10 09:56:02;;;;;;;4.40;1.65;;;20.10;99.90;;;;;;4937447;28;39184;-77
2022/09/10 09:58:30;;;;;;;1.80;1.52;;;20.10;99.90;;;;;;4937680;28;47134;-76
2022/09/10 10:01:03;;;;;;;2.58;1.80;;;20.00;99.90;;;;;;4945502;28;39620;-78
2022/09/10 10:03:51;;;;;;;3.78;2.00;;;19.90;99.90;;;;;;4939852;28;47207;-77
2022/09/10 10:06:23;;;;;;;4.95;2.20;;;19.80;99.90;;;;;;4929758;28;38323;-77
2022/09/10 10:08:55;;;;;;;;;;;20.00;99.90;;;;;;4939577;28;37352;-79
2022/09/10 10:11:21;;;;;;;5.57;2.53;;;20.20;99.90;;;;;;4943493;28;39195;-78
2022/09/10 10:13:52;;;;;;;3.17;2.30;;;20.40;99.90;;;;;;4939789;28;38425;-77
2022/09/10 10:16:32;;;;;;;5.90;2.28;;;20.30;99.90;;;;;;4936200;28;37641;-78
2022/09/10 10:18:58;;;;;;;6.20;1.63;;;20.10;99.90;;;;;;4959320;28;37013;-77
2022/09/10 10:21:33;;;;;;;3.08;1.65;;;20.00;99.90;;;;;;4919278;28;39059;-76
2022/09/10 10:23:59;;;;;;;4.57;1.50;;;20.10;99.90;;;;;;4926179;28;39131;-76
2022/09/10 10:26:31;;;;;;;4.47;2.17;;;20.30;99.90;;;;;;4949560;28;36753;-78
2022/09/10 10:29:05;;;;;;;3.05;2.50;;;20.40;99.90;;;;;;4941299;28;35911;-78
2022/09/10 10:31:37;;;;;;;4.97;2.70;;;20.60;99.90;;;;;;4961456;28;49053;-79
2022/09/10 10:34:15;;;;;;;5.63;3.15;;;20.90;99.90;;;;;;4932660;28;38414;-77
2022/09/10 10:37:15;;;;;;;3.75;3.33;;;21.10;99.90;;;;;;4937574;28;36705;-76
2022/09/10 10:40:09;;;;;;;4.18;2.65;;;21.20;99.90;;;;;;4956764;28;48753;-76
2022/09/10 10:43:04;;;;;;;3.78;3.13;;;21.40;99.90;;;;;;4953118;28;47075;-76
2022/09/10 10:45:37;;;;;;;4.78;3.00;;;21.70;99.90;;;;;;4925879;28;47721;-76
2022/09/10 10:48:29;;;;;;;4.38;2.85;;;21.80;99.90;;;;;;4932131;28;36764;-75
2022/09/10 10:51:20;;;;;;;4.10;2.63;;;21.70;99.90;;;;;;4936198;28;37150;-76
2022/09/10 10:54:17;;;;;;;4.15;2.30;;;21.60;99.90;;;;;;4939957;28;47038;-75
2022/09/10 10:57:02;;;;;;;3.28;2.67;;;21.60;99.90;;;;;;4940760;28;47227;-75
2022/09/10 11:00:00;;;;;;;4.78;2.80;;;21.40;99.90;;;;;;4951100;28;48116;-75
2022/09/10 11:02:49;;;;;;;4.15;2.17;;;21.10;99.90;;;;;;4926129;28;36969;-76
2022/09/10 11:05:34;;;;;;;1.60;1.33;;;21.20;99.90;;;;;;4937827;28;39652;-76
2022/09/10 11:08:09;;;;;;;4.13;1.48;;;21.50;99.90;;;;;;4950177;28;37949;-75
2022/09/10 11:10:43;;;;;;;3.97;2.10;;;21.40;99.90;;;;;;4956866;28;48795;-78
2022/09/10 11:13:23;;;;;;;2.38;1.02;;;21.30;99.90;;;;;;4950418;28;37456;-77
2022/09/10 11:16:00;;;;;;;2.55;1.30;;;21.30;99.90;;;;;;4941759;28;39291;-78
2022/09/10 11:18:45;;;;;;;4.22;1.60;;;21.40;99.90;;;;;;4945085;28;38309;-77
2022/09/10 11:21:32;;;;;;;3.00;1.33;;;21.50;99.90;;;;;;4949800;28;37785;-77
2022/09/10 11:24:13;;;;;;;3.85;1.65;;;21.30;99.90;;;;;;4939344;28;36284;-75
2022/09/10 11:26:57;;;;;;;5.85;1.60;;;21.30;99.90;;;;;;4932541;28;47062;-77
2022/09/10 11:29:50;;;;;;;2.42;1.08;;;21.70;99.90;;;;;;4933785;28;37090;-77
2022/09/10 11:32:22;;;;;;;5.07;1.58;;;21.60;99.90;;;;;;4952351;28;37801;-76
2022/09/10 11:35:04;;;;;;;2.13;1.00;;;21.50;99.90;;;;;;4956986;28;37243;-76
2022/09/10 11:37:37;;;;;;;;;;;21.70;99.90;;;;;;4956066;28;48440;-78
2022/09/10 11:40:11;;;;;;;2.28;1.10;;;22.10;99.90;;;;;;4956460;28;39507;-76
2022/09/10 11:42:42;;;;;;;3.47;1.40;;;22.30;99.90;;;;;;4956437;28;38291;-76
2022/09/10 11:45:35;;;;;;;3.53;1.40;;;22.20;99.90;;;;;;4942383;28;38866;-77
2022/09/10 11:48:34;;;;;;;5.90;1.98;;;21.90;99.90;;;;;;4941492;28;39376;-77
2022/09/10 11:51:05;;;;;;;3.40;1.45;;;21.80;99.90;;;;;;4955793;28;49092;-77
2022/09/10 11:53:32;;;;;;;3.45;1.50;;;21.80;99.90;;;;;;4930996;28;46960;-77
2022/09/10 11:56:22;;;;;;;3.38;1.50;;;21.70;99.90;;;;;;4939754;28;36593;-77
2022/09/10 11:59:01;;;;;;;4.18;1.63;;;21.60;99.90;;;;;;4953919;28;47506;-77
2022/09/10 12:02:01;;;;;;;3.92;1.42;;;21.70;99.90;;;;;;4959649;28;48091;-77
2022/09/10 12:04:45;;;;;;;2.97;1.10;;;21.50;99.90;;;;;;4940847;28;47729;-77
2022/09/10 12:07:44;;;;;;;3.95;1.30;;;21.50;99.90;;;;;;4942340;28;36200;-78
2022/09/10 12:10:18;;;;;;;4.75;1.33;;;21.40;99.90;;;;;;4935255;28;39374;-77
2022/09/10 12:12:50;;;;;;;3.20;1.30;;;21.40;99.90;;;;;;4961259;28;37458;-77
2022/09/10 12:15:22;;;;;;;6.22;1.70;;;21.30;99.90;;;;;;4940068;28;37248;-77
2022/09/10 12:17:57;;;;;;;3.13;1.30;;;21.30;99.90;;;;;;4942402;28;36789;-77
2022/09/10 12:20:38;;;;;;;3.60;1.20;;;21.50;99.90;;;;;;4954550;28;38582;-77
2022/09/10 12:23:04;;;;;;;2.92;1.45;;;21.50;99.90;;;;;;4952679;28;37550;-77
2022/09/10 12:25:32;;;;;;;5.85;1.20;;;21.50;99.90;;;;;;4941208;28;37351;-77
2022/09/10 12:28:01;;;;;;;4.25;1.48;;;21.50;99.90;;;;;;4962470;28;37123;-76
2022/09/10 12:30:28;;;;;;;2.90;1.02;;;21.50;99.90;;;;;;4943200;28;48326;-77
2022/09/10 12:33:00;;;;;;;2.08;0.70;;;21.60;99.90;;;;;;4942914;28;37475;-77
2022/09/10 12:35:30;;;;;;;4.43;0.85;;;21.50;99.90;;;;;;4945996;28;38681;-77
2022/09/10 12:38:33;;;;;;;1.90;0.80;;;21.30;99.90;;;;;;4962982;28;38033;-77
2022/09/10 12:41:07;;;;;;;2.97;0.90;;;21.30;99.90;;;;;;4946981;28;47266;-77
2022/09/10 12:43:39;;;;;;;2.83;0.88;;;21.40;99.90;;;;;;4943072;28;47326;-76
2022/09/10 12:46:08;;;;;;;4.32;1.20;;;21.60;99.90;;;;;;4949182;28;38478;-77
2022/09/10 12:48:54;;;;;;;4.13;1.65;;;21.60;99.90;;;;;;4959083;28;37633;-76
2022/09/10 12:51:30;;;;;;;2.45;0.80;;;21.70;99.90;;;;;;4935328;28;38042;-77
2022/09/10 12:54:02;;;;;;;3.80;0.80;;;22.00;99.90;;;;;;4953550;28;39152;-77
2022/09/10 12:56:49;;;;;;;3.38;0.90;;;21.90;99.90;;;;;;4956410;28;47435;-77
2022/09/10 12:59:44;;;;;;;3.20;1.02;;;21.60;99.90;;;;;;4952039;28;37292;-77
2022/09/10 13:02:30;;;;;;;3.92;0.90;;;21.30;99.90;;;;;;4948737;28;39316;-77
2022/09/10 13:05:21;;;;;;;3.00;1.13;;;21.50;99.90;;;;;;4935411;28;38337;-77
2022/09/10 13:08:17;;;;;;;3.88;1.10;;;21.80;99.90;;;;;;4954073;28;47899;-76
2022/09/10 13:11:12;;;;;;;3.58;1.30;;;22.10;99.90;;;;;;4944075;28;46867;-80
2022/09/10 13:13:58;;;;;;;1.70;0.90;;;22.30;99.90;;;;;;4937531;28;47096;-76
2022/09/10 13:16:25;;;;;;;4.38;1.45;;;22.60;99.90;;;;;;4944433;28;37511;-77
2022/09/10 13:18:52;;;;;;;4.82;1.25;;;22.80;99.90;;;;;;4933716;28;37884;-77
2022/09/10 13:21:24;;;;;;;4.15;1.00;;;22.90;99.90;;;;;;4949350;28;37700;-79
2022/09/10 13:23:54;;;;;;;3.67;1.27;;;23.00;99.90;;;;;;4908579;28;37653;-77
2022/09/10 13:26:37;;;;;;;3.20;1.08;;;23.10;99.90;;;;;;4930172;28;37633;-78
2022/09/10 13:29:08;;;;;;;;;;;23.00;99.90;;;;;;4944623;28;38261;-78
2022/09/10 13:31:38;;;;;;;2.22;0.90;;;23.00;99.90;;;;;;4920836;28;36199;-78
2022/09/10 13:34:13;;;;;;;4.28;1.10;;;22.90;99.90;;;;;;4945018;28;40455;-78
2022/09/10 13:37:03;;;;;;;3.45;1.20;;;23.00;99.90;;;;;;4957164;28;39315;-78
2022/09/10 13:40:12;;;;;;;2.90;1.30;;;22.90;99.90;;;;;;4939305;28;47900;-78
2022/09/10 13:42:50;;;;;;;3.67;1.17;;;22.70;99.90;;;;;;4953964;28;47338;-76
2022/09/10 13:45:23;;;;;;;3.58;1.23;;;22.40;99.90;;;;;;4938057;28;37599;-78
2022/09/10 13:48:16;;;;;;;3.17;1.00;;;22.30;99.90;;;;;;4941372;28;37081;-79
2022/09/10 13:51:12;;;;;;;3.05;1.20;;;22.50;99.90;;;;;;4944457;28;48709;-80
2022/09/10 13:53:41;;;;;;;2.95;1.20;;;22.60;99.90;;;;;;4946060;28;46699;-79
2022/09/10 13:56:19;;;;;;;7.95;1.35;;;22.70;99.90;;;;;;4936346;28;37728;-79
2022/09/10 13:58:52;;;;;;;5.50;1.33;;;22.70;99.90;;;;;;4953047;28;38418;-78
2022/09/10 14:01:18;;;;;;;3.15;1.30;;;22.90;99.90;;;;;;4932621;28;38534;-79
2022/09/10 14:03:44;;;;;;;3.45;1.85;;;23.10;99.90;;;;;;4943219;28;37130;-79
2022/09/10 14:06:17;;;;;;;5.10;1.52;;;23.20;99.90;;;;;;4930984;28;37047;-78
2022/09/10 14:09:01;;;;;;;2.13;1.00;;;23.10;99.90;;;;;;4932634;28;37005;-78
2022/09/10 14:11:30;;;;;;;2.70;0.70;;;23.00;99.90;;;;;;4928533;28;47126;-77
2022/09/10 14:14:04;;;;;;;4.53;1.15;;;23.30;99.90;;;;;;4921572;28;36339;-78
2022/09/10 14:16:32;;;;;;;3.72;1.50;;;23.70;99.90;;;;;;4915435;28;48141;-81